sensor_id;sensor_type;location;lat;lon;timestamp;pressure;altitude;pressure_sealevel;temperature;humidity
55373;BME280;41249;47.838;16.490;2023-04-08T00:01:29;99324.97;;;0.25;66.37
55373;BME280;41249;47.838;16.490;2023-04-08T00:03:56;99320.97;;;0.22;66.30
55373;BME280;41249;47.838;16.490;2023-04-08T00:06:23;99315.84;;;0.20;66.10
55373;BME280;41249;47.838;16.490;2023-04-08T00:08:49;99322.31;;;0.16;66.34
55373;BME280;41249;47.838;16.490;2023-04-08T00:11:17;99318.44;;;0.17;66.87
55373;BME280;41249;47.838;16.490;2023-04-08T00:13:43;99314.44;;;0.14;67.21
55373;BME280;41249;47.838;16.490;2023-04-08T00:16:10;99322.94;;;0.13;66.98
55373;BME280;41249;47.838;16.490;2023-04-08T00:18:36;99312.69;;;0.10;66.81
55373;BME280;41249;47.838;16.490;2023-04-08T00:21:03;99322.31;;;0.16;66.73
55373;BME280;41249;47.838;16.490;2023-04-08T00:23:30;99324.50;;;0.22;65.93
55373;BME280;41249;47.838;16.490;2023-04-08T00:25:56;99324.97;;;0.25;67.80
55373;BME280;41249;47.838;16.490;2023-04-08T00:28:23;99326.59;;;0.26;67.62
55373;BME280;41249;47.838;16.490;2023-04-08T00:30:51;99326.81;;;0.12;69.46
55373;BME280;41249;47.838;16.490;2023-04-08T00:33:18;99336.19;;;-0.06;70.86
55373;BME280;41249;47.838;16.490;2023-04-08T00:35:44;99334.78;;;-0.21;74.98
55373;BME280;41249;47.838;16.490;2023-04-08T00:38:11;99341.22;;;-0.25;74.92
55373;BME280;41249;47.838;16.490;2023-04-08T00:40:38;99336.56;;;-0.33;75.06
55373;BME280;41249;47.838;16.490;2023-04-08T00:43:04;99342.06;;;-0.42;77.45
55373;BME280;41249;47.838;16.490;2023-04-08T00:45:32;99339.81;;;-0.49;77.21
55373;BME280;41249;47.838;16.490;2023-04-08T00:48:01;99337.44;;;-0.50;76.32
55373;BME280;41249;47.838;16.490;2023-04-08T00:50:28;99341.72;;;-0.32;74.28
55373;BME280;41249;47.838;16.490;2023-04-08T00:52:54;99345.69;;;-0.21;73.36
55373;BME280;41249;47.838;16.490;2023-04-08T00:55:21;99344.25;;;-0.18;72.50
55373;BME280;41249;47.838;16.490;2023-04-08T00:57:48;99339.44;;;-0.21;73.98
55373;BME280;41249;47.838;16.490;2023-04-08T01:00:14;99346.19;;;-0.27;74.62
55373;BME280;41249;47.838;16.490;2023-04-08T01:05:26;99341.81;;;-0.11;73.49
55373;BME280;41249;47.838;16.490;2023-04-08T01:07:57;99333.78;;;-0.08;72.81
55373;BME280;41249;47.838;16.490;2023-04-08T01:10:28;99332.16;;;-0.09;73.46
55373;BME280;41249;47.838;16.490;2023-04-08T01:13:04;99334.72;;;-0.04;73.81
55373;BME280;41249;47.838;16.490;2023-04-08T01:15:32;99345.63;;;-0.04;74.05
55373;BME280;41249;47.838;16.490;2023-04-08T01:18:05;99341.91;;;0.09;73.27
55373;BME280;41249;47.838;16.490;2023-04-08T01:20:33;99347.81;;;0.11;73.38
55373;BME280;41249;47.838;16.490;2023-04-08T01:25:30;99339.03;;;0.06;73.93
55373;BME280;41249;47.838;16.490;2023-04-08T01:27:59;99346.59;;;0.00;73.41
55373;BME280;41249;47.838;16.490;2023-04-08T01:30:27;99338.06;;;0.10;74.38
55373;BME280;41249;47.838;16.490;2023-04-08T01:32:56;99345.38;;;0.18;74.29
55373;BME280;41249;47.838;16.490;2023-04-08T01:35:24;99341.06;;;0.17;74.73
55373;BME280;41249;47.838;16.490;2023-04-08T01:37:52;99346.91;;;0.07;74.83
55373;BME280;41249;47.838;16.490;2023-04-08T01:40:20;99357.06;;;-0.10;75.40
55373;BME280;41249;47.838;16.490;2023-04-08T01:42:48;99354.50;;;-0.07;75.22
55373;BME280;41249;47.838;16.490;2023-04-08T01:45:17;99355.59;;;0.01;75.66
55373;BME280;41249;47.838;16.490;2023-04-08T01:47:44;99356.06;;;0.03;75.20
55373;BME280;41249;47.838;16.490;2023-04-08T01:50:14;99351.59;;;-0.02;75.06
55373;BME280;41249;47.838;16.490;2023-04-08T01:52:46;99352.88;;;-0.08;75.31
55373;BME280;41249;47.838;16.490;2023-04-08T01:55:15;99360.09;;;-0.03;75.61
55373;BME280;41249;47.838;16.490;2023-04-08T01:57:44;99361.38;;;-0.01;75.08
55373;BME280;41249;47.838;16.490;2023-04-08T02:00:15;99344.69;;;0.01;75.05
55373;BME280;41249;47.838;16.490;2023-04-08T02:02:44;99346.09;;;0.07;74.90
55373;BME280;41249;47.838;16.490;2023-04-08T02:05:13;99352.50;;;0.11;74.67
55373;BME280;41249;47.838;16.490;2023-04-08T02:07:39;99349.44;;;0.12;74.68
55373;BME280;41249;47.838;16.490;2023-04-08T02:10:06;99355.56;;;0.09;75.16
55373;BME280;41249;47.838;16.490;2023-04-08T02:12:33;99357.00;;;0.07;74.91
55373;BME280;41249;47.838;16.490;2023-04-08T02:15:00;99353.97;;;0.08;75.06
55373;BME280;41249;47.838;16.490;2023-04-08T02:20:09;99367.78;;;0.03;75.37
55373;BME280;41249;47.838;16.490;2023-04-08T02:25:24;99362.34;;;0.03;75.12
55373;BME280;41249;47.838;16.490;2023-04-08T02:27:51;99351.41;;;0.03;75.70
55373;BME280;41249;47.838;16.490;2023-04-08T02:30:20;99367.78;;;0.03;75.27
55373;BME280;41249;47.838;16.490;2023-04-08T02:32:48;99363.59;;;0.06;75.10
55373;BME280;41249;47.838;16.490;2023-04-08T02:35:16;99350.44;;;0.08;75.32
55373;BME280;41249;47.838;16.490;2023-04-08T02:37:45;99355.56;;;0.09;75.34
55373;BME280;41249;47.838;16.490;2023-04-08T02:42:48;99362.09;;;0.17;75.61
55373;BME280;41249;47.838;16.490;2023-04-08T02:45:15;99356.53;;;0.05;75.47
55373;BME280;41249;47.838;16.490;2023-04-08T02:47:42;99363.44;;;0.02;76.17
55373;BME280;41249;47.838;16.490;2023-04-08T02:50:09;99362.47;;;0.07;75.82
55373;BME280;41249;47.838;16.490;2023-04-08T02:52:36;99368.88;;;0.11;76.32
55373;BME280;41249;47.838;16.490;2023-04-08T02:55:03;99369.38;;;0.04;75.71
55373;BME280;41249;47.838;16.490;2023-04-08T02:57:31;99362.97;;;0.00;75.66
55373;BME280;41249;47.838;16.490;2023-04-08T02:59:58;99364.28;;;-0.06;75.79
55373;BME280;41249;47.838;16.490;2023-04-08T03:02:24;99373.44;;;-0.02;76.00
55373;BME280;41249;47.838;16.490;2023-04-08T03:04:51;99373.09;;;-0.00;75.68
55373;BME280;41249;47.838;16.490;2023-04-08T03:07:18;99375.63;;;0.05;76.05
55373;BME280;41249;47.838;16.490;2023-04-08T03:09:45;99372.41;;;0.11;75.76
55373;BME280;41249;47.838;16.490;2023-04-08T03:12:11;99379.34;;;0.00;76.01
55373;BME280;41249;47.838;16.490;2023-04-08T03:14:38;99371.63;;;0.02;75.91
55373;BME280;41249;47.838;16.490;2023-04-08T03:17:04;99373.19;;;0.20;75.90
55373;BME280;41249;47.838;16.490;2023-04-08T03:19:31;99372.69;;;0.18;75.52
55373;BME280;41249;47.838;16.490;2023-04-08T03:21:57;99374.47;;;0.14;75.49
55373;BME280;41249;47.838;16.490;2023-04-08T03:24:24;99373.38;;;0.15;75.59
55373;BME280;41249;47.838;16.490;2023-04-08T03:26:50;99369.31;;;0.21;75.42
55373;BME280;41249;47.838;16.490;2023-04-08T03:29:17;99378.78;;;0.24;75.84
55373;BME280;41249;47.838;16.490;2023-04-08T03:31:44;99371.66;;;0.32;75.51
55373;BME280;41249;47.838;16.490;2023-04-08T03:34:11;99374.13;;;0.25;76.28
55373;BME280;41249;47.838;16.490;2023-04-08T03:36:37;99375.41;;;0.18;76.14
55373;BME280;41249;47.838;16.490;2023-04-08T03:39:04;99370.81;;;0.10;76.76
55373;BME280;41249;47.838;16.490;2023-04-08T03:41:31;99381.25;;;0.08;77.18
55373;BME280;41249;47.838;16.490;2023-04-08T03:43:57;99381.56;;;0.07;77.21
55373;BME280;41249;47.838;16.490;2023-04-08T03:46:24;99387.06;;;-0.02;77.31
55373;BME280;41249;47.838;16.490;2023-04-08T03:48:51;99386.75;;;-0.09;76.96
55373;BME280;41249;47.838;16.490;2023-04-08T03:51:18;99392.19;;;-0.09;77.19
55373;BME280;41249;47.838;16.490;2023-04-08T03:53:44;99393.16;;;-0.05;77.02
55373;BME280;41249;47.838;16.490;2023-04-08T03:56:11;99387.88;;;-0.10;76.76
55373;BME280;41249;47.838;16.490;2023-04-08T03:58:37;99400.38;;;-0.09;77.56
55373;BME280;41249;47.838;16.490;2023-04-08T04:01:04;99403.53;;;0.19;76.94
55373;BME280;41249;47.838;16.490;2023-04-08T04:03:31;99403.41;;;0.07;76.36
55373;BME280;41249;47.838;16.490;2023-04-08T04:05:58;99406.66;;;-0.08;76.74
55373;BME280;41249;47.838;16.490;2023-04-08T04:08:24;99407.66;;;-0.30;76.50
55373;BME280;41249;47.838;16.490;2023-04-08T04:10:51;99406.53;;;-0.46;76.63
55373;BME280;41249;47.838;16.490;2023-04-08T04:13:17;99414.59;;;-0.67;76.76
55373;BME280;41249;47.838;16.490;2023-04-08T04:15:44;99412.19;;;-0.77;76.58
55373;BME280;41249;47.838;16.490;2023-04-08T04:18:11;99416.81;;;-0.94;76.86
55373;BME280;41249;47.838;16.490;2023-04-08T04:20:41;99417.09;;;-1.13;77.35
55373;BME280;41249;47.838;16.490;2023-04-08T04:23:08;99424.75;;;-1.24;77.32
55373;BME280;41249;47.838;16.490;2023-04-08T04:25:35;99416.72;;;-1.37;77.61
55373;BME280;41249;47.838;16.490;2023-04-08T04:28:02;99424.22;;;-1.43;78.06
55373;BME280;41249;47.838;16.490;2023-04-08T04:30:28;99422.00;;;-1.32;77.29
55373;BME280;41249;47.838;16.490;2023-04-08T04:32:55;99423.78;;;-1.28;76.70
55373;BME280;41249;47.838;16.490;2023-04-08T04:35:23;99422.53;;;-1.13;75.82
55373;BME280;41249;47.838;16.490;2023-04-08T04:37:49;99418.69;;;-1.12;76.56
55373;BME280;41249;47.838;16.490;2023-04-08T04:40:17;99421.91;;;-1.10;75.74
55373;BME280;41249;47.838;16.490;2023-04-08T04:42:43;99415.50;;;-1.05;75.87
55373;BME280;41249;47.838;16.490;2023-04-08T04:45:10;99427.16;;;-1.14;75.92
55373;BME280;41249;47.838;16.490;2023-04-08T04:47:37;99428.16;;;-1.10;75.51
55373;BME280;41249;47.838;16.490;2023-04-08T04:50:04;99424.66;;;-1.01;75.20
55373;BME280;41249;47.838;16.490;2023-04-08T04:52:32;99435.88;;;-0.94;75.63
55373;BME280;41249;47.838;16.490;2023-04-08T04:54:58;99431.88;;;-0.80;75.67
55373;BME280;41249;47.838;16.490;2023-04-08T04:57:25;99436.72;;;-0.77;75.58
55373;BME280;41249;47.838;16.490;2023-04-08T04:59:51;99441.81;;;-0.75;75.93
55373;BME280;41249;47.838;16.490;2023-04-08T05:02:18;99444.88;;;-0.68;75.67
55373;BME280;41249;47.838;16.490;2023-04-08T05:04:45;99451.63;;;-0.57;75.84
55373;BME280;41249;47.838;16.490;2023-04-08T05:07:11;99452.25;;;-0.60;75.53
55373;BME280;41249;47.838;16.490;2023-04-08T05:09:38;99458.34;;;-0.63;76.07
55373;BME280;41249;47.838;16.490;2023-04-08T05:12:05;99451.63;;;-0.66;76.09
55373;BME280;41249;47.838;16.490;2023-04-08T05:14:31;99458.50;;;-0.77;76.40
55373;BME280;41249;47.838;16.490;2023-04-08T05:16:58;99461.53;;;-0.87;76.38
55373;BME280;41249;47.838;16.490;2023-04-08T05:19:25;99459.63;;;-0.86;76.09
55373;BME280;41249;47.838;16.490;2023-04-08T05:21:51;99461.00;;;-1.06;76.07
55373;BME280;41249;47.838;16.490;2023-04-08T05:24:18;99455.84;;;-1.16;76.67
55373;BME280;41249;47.838;16.490;2023-04-08T05:26:45;99461.75;;;-1.23;76.77
55373;BME280;41249;47.838;16.490;2023-04-08T05:29:13;99476.50;;;-1.24;76.75
55373;BME280;41249;47.838;16.490;2023-04-08T05:31:39;99476.19;;;-1.22;76.96
55373;BME280;41249;47.838;16.490;2023-04-08T05:34:06;99478.31;;;-1.11;76.87
55373;BME280;41249;47.838;16.490;2023-04-08T05:36:32;99482.13;;;-1.20;76.65
55373;BME280;41249;47.838;16.490;2023-04-08T05:38:59;99481.94;;;-1.24;76.51
55373;BME280;41249;47.838;16.490;2023-04-08T05:41:28;99488.66;;;-1.30;76.73
55373;BME280;41249;47.838;16.490;2023-04-08T05:43:54;99487.84;;;-1.30;76.70
55373;BME280;41249;47.838;16.490;2023-04-08T05:46:21;99497.16;;;-1.31;76.63
55373;BME280;41249;47.838;16.490;2023-04-08T05:48:47;99497.28;;;-1.36;76.58
55373;BME280;41249;47.838;16.490;2023-04-08T05:51:15;99495.81;;;-1.42;76.80
55373;BME280;41249;47.838;16.490;2023-04-08T05:53:46;99508.53;;;-1.29;76.80
55373;BME280;41249;47.838;16.490;2023-04-08T05:56:12;99500.22;;;-1.16;76.79
55373;BME280;41249;47.838;16.490;2023-04-08T05:58:39;99502.06;;;-1.02;76.14
55373;BME280;41249;47.838;16.490;2023-04-08T06:01:05;99506.25;;;-0.96;76.05
55373;BME280;41249;47.838;16.490;2023-04-08T06:03:32;99507.88;;;-0.87;75.83
55373;BME280;41249;47.838;16.490;2023-04-08T06:05:59;99507.81;;;-1.04;75.94
55373;BME280;41249;47.838;16.490;2023-04-08T06:08:26;99505.25;;;-1.09;75.88
55373;BME280;41249;47.838;16.490;2023-04-08T06:10:52;99508.44;;;-1.07;76.12
55373;BME280;41249;47.838;16.490;2023-04-08T06:13:19;99510.56;;;-0.95;76.21
55373;BME280;41249;47.838;16.490;2023-04-08T06:15:47;99509.16;;;-0.84;75.84
55373;BME280;41249;47.838;16.490;2023-04-08T06:18:16;99519.09;;;-0.80;75.85
55373;BME280;41249;47.838;16.490;2023-04-08T06:20:43;99518.63;;;-0.73;75.79
55373;BME280;41249;47.838;16.490;2023-04-08T06:23:10;99522.50;;;-0.74;75.90
55373;BME280;41249;47.838;16.490;2023-04-08T06:25:36;99525.06;;;-0.69;75.99
55373;BME280;41249;47.838;16.490;2023-04-08T06:28:03;99531.81;;;-0.58;75.61
55373;BME280;41249;47.838;16.490;2023-04-08T06:30:30;99525.41;;;-0.62;75.50
55373;BME280;41249;47.838;16.490;2023-04-08T06:32:56;99527.50;;;-0.59;75.66
55373;BME280;41249;47.838;16.490;2023-04-08T06:35:23;99537.22;;;-0.75;75.48
55373;BME280;41249;47.838;16.490;2023-04-08T06:37:50;99526.31;;;-0.75;75.77
55373;BME280;41249;47.838;16.490;2023-04-08T06:40:16;99537.19;;;-0.92;75.60
55373;BME280;41249;47.838;16.490;2023-04-08T06:42:43;99539.09;;;-1.01;75.49
55373;BME280;41249;47.838;16.490;2023-04-08T06:45:10;99533.44;;;-1.05;76.02
55373;BME280;41249;47.838;16.490;2023-04-08T06:47:36;99535.13;;;-0.87;75.38
55373;BME280;41249;47.838;16.490;2023-04-08T06:50:03;99535.94;;;-0.86;75.36
55373;BME280;41249;47.838;16.490;2023-04-08T06:52:30;99537.06;;;-0.79;75.01
55373;BME280;41249;47.838;16.490;2023-04-08T06:54:56;99539.19;;;-0.67;75.27
55373;BME280;41249;47.838;16.490;2023-04-08T06:57:23;99542.72;;;-0.58;74.97
55373;BME280;41249;47.838;16.490;2023-04-08T06:59:49;99541.94;;;-0.50;75.37
55373;BME280;41249;47.838;16.490;2023-04-08T07:02:16;99544.03;;;-0.47;75.00
55373;BME280;41249;47.838;16.490;2023-04-08T07:04:43;99550.13;;;-0.50;75.05
55373;BME280;41249;47.838;16.490;2023-04-08T07:07:12;99556.72;;;-0.43;75.50
55373;BME280;41249;47.838;16.490;2023-04-08T07:09:38;99551.28;;;-0.34;75.36
55373;BME280;41249;47.838;16.490;2023-04-08T07:12:06;99560.25;;;-0.42;74.76
55373;BME280;41249;47.838;16.490;2023-04-08T07:14:33;99559.09;;;-0.41;75.00
55373;BME280;41249;47.838;16.490;2023-04-08T07:16:59;99567.31;;;-0.32;75.23
55373;BME280;41249;47.838;16.490;2023-04-08T07:19:26;99565.06;;;-0.30;75.25
55373;BME280;41249;47.838;16.490;2023-04-08T07:21:53;99573.72;;;-0.28;75.64
55373;BME280;41249;47.838;16.490;2023-04-08T07:24:20;99577.09;;;-0.23;75.35
55373;BME280;41249;47.838;16.490;2023-04-08T07:26:46;99579.03;;;-0.23;75.37
55373;BME280;41249;47.838;16.490;2023-04-08T07:29:13;99581.09;;;-0.29;75.77
55373;BME280;41249;47.838;16.490;2023-04-08T07:31:39;99586.09;;;-0.22;75.55
55373;BME280;41249;47.838;16.490;2023-04-08T07:34:08;99589.31;;;-0.12;75.04
55373;BME280;41249;47.838;16.490;2023-04-08T07:36:34;99591.84;;;-0.24;73.99
55373;BME280;41249;47.838;16.490;2023-04-08T07:39:01;99591.97;;;-1.02;74.59
55373;BME280;41249;47.838;16.490;2023-04-08T07:41:28;99584.88;;;-1.03;75.11
55373;BME280;41249;47.838;16.490;2023-04-08T07:43:55;99597.44;;;-0.55;75.00
55373;BME280;41249;47.838;16.490;2023-04-08T07:46:22;99588.97;;;-0.19;73.67
55373;BME280;41249;47.838;16.490;2023-04-08T07:48:49;99589.44;;;-0.43;72.87
55373;BME280;41249;47.838;16.490;2023-04-08T07:51:16;99604.41;;;-0.71;73.38
55373;BME280;41249;47.838;16.490;2023-04-08T07:53:46;99603.41;;;-0.83;74.05
55373;BME280;41249;47.838;16.490;2023-04-08T07:56:14;99599.13;;;-0.76;73.89
55373;BME280;41249;47.838;16.490;2023-04-08T07:58:41;99600.00;;;-0.41;73.96
55373;BME280;41249;47.838;16.490;2023-04-08T08:01:15;99603.44;;;0.25;72.82
55373;BME280;41249;47.838;16.490;2023-04-08T08:03:44;99602.19;;;0.13;72.75
55373;BME280;41249;47.838;16.490;2023-04-08T08:06:14;99598.31;;;0.14;72.69
55373;BME280;41249;47.838;16.490;2023-04-08T08:08:40;99608.91;;;0.07;72.43
55373;BME280;41249;47.838;16.490;2023-04-08T08:11:07;99616.59;;;-0.20;72.94
55373;BME280;41249;47.838;16.490;2023-04-08T08:13:33;99610.91;;;-0.50;73.58
55373;BME280;41249;47.838;16.490;2023-04-08T08:16:00;99608.84;;;-0.44;74.17
55373;BME280;41249;47.838;16.490;2023-04-08T08:18:27;99615.66;;;0.36;74.70
55373;BME280;41249;47.838;16.490;2023-04-08T08:20:53;99617.25;;;0.19;72.68
55373;BME280;41249;47.838;16.490;2023-04-08T08:23:20;99623.34;;;-0.18;73.20
55373;BME280;41249;47.838;16.490;2023-04-08T08:25:47;99620.88;;;-0.45;73.33
55373;BME280;41249;47.838;16.490;2023-04-08T08:28:13;99626.78;;;-0.52;74.02
55373;BME280;41249;47.838;16.490;2023-04-08T08:30:40;99632.69;;;-0.58;74.14
55373;BME280;41249;47.838;16.490;2023-04-08T08:33:06;99633.47;;;-0.66;74.49
55373;BME280;41249;47.838;16.490;2023-04-08T08:35:33;99629.97;;;-0.58;74.14
55373;BME280;41249;47.838;16.490;2023-04-08T08:38:00;99635.75;;;-0.60;74.66
55373;BME280;41249;47.838;16.490;2023-04-08T08:40:27;99629.84;;;-0.45;75.03
55373;BME280;41249;47.838;16.490;2023-04-08T08:42:53;99642.03;;;-0.51;75.33
55373;BME280;41249;47.838;16.490;2023-04-08T08:45:20;99641.78;;;-0.06;75.74
55373;BME280;41249;47.838;16.490;2023-04-08T08:47:46;99650.63;;;-0.01;75.70
55373;BME280;41249;47.838;16.490;2023-04-08T08:50:16;99649.25;;;-0.46;73.59
55373;BME280;41249;47.838;16.490;2023-04-08T08:52:51;99656.47;;;-0.50;74.62
55373;BME280;41249;47.838;16.490;2023-04-08T08:55:19;99654.22;;;-0.57;74.75
55373;BME280;41249;47.838;16.490;2023-04-08T08:58:06;99653.63;;;-0.76;75.56
55373;BME280;41249;47.838;16.490;2023-04-08T09:00:37;99665.00;;;-0.74;75.24
55373;BME280;41249;47.838;16.490;2023-04-08T09:03:14;99664.28;;;-0.96;75.49
55373;BME280;41249;47.838;16.490;2023-04-08T09:05:48;99674.06;;;-0.95;75.70
55373;BME280;41249;47.838;16.490;2023-04-08T09:10:52;99681.38;;;-1.04;76.45
55373;BME280;41249;47.838;16.490;2023-04-08T09:13:21;99673.75;;;-1.16;76.04
55373;BME280;41249;47.838;16.490;2023-04-08T09:16:08;99677.53;;;-1.26;76.56
55373;BME280;41249;47.838;16.490;2023-04-08T09:18:36;99686.59;;;-1.17;76.61
55373;BME280;41249;47.838;16.490;2023-04-08T09:21:04;99688.81;;;-1.19;76.48
55373;BME280;41249;47.838;16.490;2023-04-08T09:23:51;99688.69;;;-1.14;76.95
55373;BME280;41249;47.838;16.490;2023-04-08T09:26:23;99687.00;;;-1.01;76.37
55373;BME280;41249;47.838;16.490;2023-04-08T09:28:58;99688.81;;;-0.96;76.28
55373;BME280;41249;47.838;16.490;2023-04-08T09:31:35;99695.09;;;-0.87;75.81
55373;BME280;41249;47.838;16.490;2023-04-08T09:34:14;99703.66;;;-1.02;76.18
55373;BME280;41249;47.838;16.490;2023-04-08T09:36:42;99698.16;;;-1.11;76.20
55373;BME280;41249;47.838;16.490;2023-04-08T09:39:12;99698.22;;;-1.02;75.94
55373;BME280;41249;47.838;16.490;2023-04-08T09:41:39;99694.16;;;-0.83;75.85
55373;BME280;41249;47.838;16.490;2023-04-08T09:44:07;99698.03;;;-0.84;75.72
55373;BME280;41249;47.838;16.490;2023-04-08T09:46:55;99696.34;;;-0.93;76.31
55373;BME280;41249;47.838;16.490;2023-04-08T09:49:28;99707.91;;;-0.88;76.31
55373;BME280;41249;47.838;16.490;2023-04-08T09:52:20;99706.97;;;-0.83;76.04
55373;BME280;41249;47.838;16.490;2023-04-08T10:00:33;99708.47;;;-0.77;76.01
55373;BME280;41249;47.838;16.490;2023-04-08T10:05:51;99705.34;;;-0.62;75.82
55373;BME280;41249;47.838;16.490;2023-04-08T10:08:18;99707.66;;;-0.47;75.49
55373;BME280;41249;47.838;16.490;2023-04-08T10:10:45;99711.31;;;-0.52;76.08
55373;BME280;41249;47.838;16.490;2023-04-08T10:13:13;99706.97;;;-0.53;75.86
55373;BME280;41249;47.838;16.490;2023-04-08T10:15:40;99716.44;;;-0.11;76.05
55373;BME280;41249;47.838;16.490;2023-04-08T10:23:09;99716.94;;;-0.48;75.56
55373;BME280;41249;47.838;16.490;2023-04-08T10:25:41;99715.06;;;-0.39;75.92
55373;BME280;41249;47.838;16.490;2023-04-08T10:30:42;99724.00;;;-0.08;75.64
55373;BME280;41249;47.838;16.490;2023-04-08T10:33:16;99727.19;;;-0.14;75.17
55373;BME280;41249;47.838;16.490;2023-04-08T10:35:48;99721.16;;;-0.42;75.65
55373;BME280;41249;47.838;16.490;2023-04-08T10:38:16;99725.16;;;-0.39;75.94
55373;BME280;41249;47.838;16.490;2023-04-08T10:40:43;99720.78;;;-0.10;75.24
55373;BME280;41249;47.838;16.490;2023-04-08T10:43:11;99728.84;;;0.12;76.33
55373;BME280;41249;47.838;16.490;2023-04-08T10:45:39;99727.06;;;1.36;75.12
55373;BME280;41249;47.838;16.490;2023-04-08T10:48:20;99720.91;;;1.57;74.54
55373;BME280;41249;47.838;16.490;2023-04-08T10:50:53;99730.38;;;1.59;72.64
55373;BME280;41249;47.838;16.490;2023-04-08T10:53:37;99724.63;;;1.43;74.77
55373;BME280;41249;47.838;16.490;2023-04-08T10:56:16;99727.41;;;1.26;74.66
55373;BME280;41249;47.838;16.490;2023-04-08T10:58:51;99722.47;;;0.68;72.71
55373;BME280;41249;47.838;16.490;2023-04-08T11:01:19;99728.06;;;0.29;73.80
55373;BME280;41249;47.838;16.490;2023-04-08T11:03:47;99734.94;;;0.09;74.09
55373;BME280;41249;47.838;16.490;2023-04-08T11:06:14;99718.56;;;0.09;74.98
55373;BME280;41249;47.838;16.490;2023-04-08T11:08:41;99725.50;;;0.15;74.76
55373;BME280;41249;47.838;16.490;2023-04-08T11:11:10;99732.22;;;0.09;74.28
55373;BME280;41249;47.838;16.490;2023-04-08T11:13:41;99724.19;;;0.04;74.84
55373;BME280;41249;47.838;16.490;2023-04-08T11:16:19;99728.94;;;-0.18;74.17
55373;BME280;41249;47.838;16.490;2023-04-08T11:18:47;99737.31;;;-0.46;74.58
55373;BME280;41249;47.838;16.490;2023-04-08T11:21:15;99734.16;;;-0.39;75.23
55373;BME280;41249;47.838;16.490;2023-04-08T11:23:42;99741.53;;;-0.39;74.89
55373;BME280;41249;47.838;16.490;2023-04-08T11:26:09;99739.06;;;-0.10;74.96
55373;BME280;41249;47.838;16.490;2023-04-08T11:28:36;99733.00;;;-0.07;74.39
55373;BME280;41249;47.838;16.490;2023-04-08T11:31:03;99744.34;;;-0.22;74.86
55373;BME280;41249;47.838;16.490;2023-04-08T11:33:31;99742.38;;;-0.30;75.37
55373;BME280;41249;47.838;16.490;2023-04-08T11:36:00;99750.28;;;-0.51;75.45
55373;BME280;41249;47.838;16.490;2023-04-08T11:38:29;99739.72;;;-0.53;75.64
55373;BME280;41249;47.838;16.490;2023-04-08T11:40:57;99744.34;;;-0.53;75.38
55373;BME280;41249;47.838;16.490;2023-04-08T11:43:25;99746.25;;;-0.54;75.31
55373;BME280;41249;47.838;16.490;2023-04-08T11:45:51;99747.81;;;-0.39;75.16
55373;BME280;41249;47.838;16.490;2023-04-08T11:48:18;99750.00;;;-0.50;76.42
55373;BME280;41249;47.838;16.490;2023-04-08T11:50:45;99747.00;;;0.08;75.78
55373;BME280;41249;47.838;16.490;2023-04-08T11:53:24;99749.13;;;0.29;74.70
55373;BME280;41249;47.838;16.490;2023-04-08T11:55:51;99745.78;;;-0.16;74.32
55373;BME280;41249;47.838;16.490;2023-04-08T11:58:18;99748.16;;;-0.32;75.07
55373;BME280;41249;47.838;16.490;2023-04-08T12:00:44;99744.84;;;-0.51;75.21
55373;BME280;41249;47.838;16.490;2023-04-08T12:03:11;99748.97;;;-0.31;75.77
55373;BME280;41249;47.838;16.490;2023-04-08T12:05:39;99739.94;;;0.07;75.44
55373;BME280;41249;47.838;16.490;2023-04-08T12:08:06;99747.16;;;0.12;75.65
55373;BME280;41249;47.838;16.490;2023-04-08T12:10:32;99743.13;;;0.09;75.05
55373;BME280;41249;47.838;16.490;2023-04-08T12:12:59;99735.13;;;0.21;75.74
55373;BME280;41249;47.838;16.490;2023-04-08T12:15:26;99737.19;;;0.07;75.51
55373;BME280;41249;47.838;16.490;2023-04-08T12:17:52;99736.28;;;0.29;75.84
55373;BME280;41249;47.838;16.490;2023-04-08T12:20:19;99742.56;;;0.47;75.37
55373;BME280;41249;47.838;16.490;2023-04-08T12:22:46;99744.19;;;0.99;75.67
55373;BME280;41249;47.838;16.490;2023-04-08T12:25:12;99746.59;;;1.09;74.90
55373;BME280;41249;47.838;16.490;2023-04-08T12:27:39;99743.22;;;1.04;75.14
55373;BME280;41249;47.838;16.490;2023-04-08T12:30:06;99744.81;;;1.13;75.13
55373;BME280;41249;47.838;16.490;2023-04-08T12:32:33;99741.13;;;1.09;75.42
55373;BME280;41249;47.838;16.490;2023-04-08T12:35:00;99749.13;;;1.40;74.70
55373;BME280;41249;47.838;16.490;2023-04-08T12:37:26;99750.00;;;0.89;73.68
55373;BME280;41249;47.838;16.490;2023-04-08T12:39:53;99747.06;;;0.77;74.72
55373;BME280;41249;47.838;16.490;2023-04-08T12:42:19;99747.75;;;1.08;75.60
55373;BME280;41249;47.838;16.490;2023-04-08T12:44:46;99753.09;;;2.27;75.03
55373;BME280;41249;47.838;16.490;2023-04-08T12:47:13;99748.38;;;2.56;73.55
55373;BME280;41249;47.838;16.490;2023-04-08T12:49:39;99748.84;;;2.38;74.13
55373;BME280;41249;47.838;16.490;2023-04-08T12:52:09;99744.91;;;2.18;74.48
55373;BME280;41249;47.838;16.490;2023-04-08T12:54:35;99747.94;;;1.96;74.85
55373;BME280;41249;47.838;16.490;2023-04-08T12:57:02;99753.94;;;1.89;75.90
55373;BME280;41249;47.838;16.490;2023-04-08T12:59:29;99754.28;;;1.88;76.85
55373;BME280;41249;47.838;16.490;2023-04-08T13:01:57;99748.78;;;1.88;76.94
55373;BME280;41249;47.838;16.490;2023-04-08T13:04:24;99756.69;;;1.81;76.68
55373;BME280;41249;47.838;16.490;2023-04-08T13:06:50;99758.63;;;1.34;74.42
55373;BME280;41249;47.838;16.490;2023-04-08T13:09:17;99750.78;;;1.15;75.46
55373;BME280;41249;47.838;16.490;2023-04-08T13:11:44;99753.66;;;1.27;75.29
55373;BME280;41249;47.838;16.490;2023-04-08T13:14:11;99753.53;;;1.15;74.29
55373;BME280;41249;47.838;16.490;2023-04-08T13:16:38;99757.88;;;0.91;74.57
55373;BME280;41249;47.838;16.490;2023-04-08T13:19:05;99758.84;;;1.03;74.63
55373;BME280;41249;47.838;16.490;2023-04-08T13:21:32;99761.41;;;0.91;74.33
55373;BME280;41249;47.838;16.490;2023-04-08T13:23:58;99753.78;;;1.31;74.44
55373;BME280;41249;47.838;16.490;2023-04-08T13:26:25;99756.47;;;1.57;74.80
55373;BME280;41249;47.838;16.490;2023-04-08T13:28:51;99760.88;;;1.23;73.35